sensor_id;sensor_type;location;lat;lon;timestamp;P1;durP1;ratioP1;P2;durP2;ratioP2
9974;SDS011;5028;50.974;4.968;2022-12-05T00:01:10;68.30;;;32.50;;
9974;SDS011;5028;50.974;4.968;2022-12-05T00:03:49;64.47;;;32.70;;
9974;SDS011;5028;50.974;4.968;2022-12-05T00:06:19;59.20;;;31.57;;
9974;SDS011;5028;50.974;4.968;2022-12-05T00:08:54;65.83;;;32.23;;
9974;SDS011;5028;50.974;4.968;2022-12-05T00:11:23;69.93;;;33.03;;
9974;SDS011;5028;50.974;4.968;2022-12-05T00:14:00;66.77;;;32.17;;
9974;SDS011;5028;50.974;4.968;2022-12-05T00:16:29;65.23;;;32.97;;
9974;SDS011;5028;50.974;4.968;2022-12-05T00:19:07;67.43;;;32.43;;
9974;SDS011;5028;50.974;4.968;2022-12-05T00:21:37;66.30;;;33.17;;
9974;SDS011;5028;50.974;4.968;2022-12-05T00:24:13;71.40;;;33.07;;
9974;SDS011;5028;50.974;4.968;2022-12-05T00:26:42;63.23;;;31.60;;
9974;SDS011;5028;50.974;4.968;2022-12-05T00:29:16;66.10;;;31.73;;
9974;SDS011;5028;50.974;4.968;2022-12-05T00:31:44;66.40;;;31.87;;
9974;SDS011;5028;50.974;4.968;2022-12-05T00:34:21;64.53;;;31.97;;
9974;SDS011;5028;50.974;4.968;2022-12-05T00:36:49;66.03;;;32.03;;
9974;SDS011;5028;50.974;4.968;2022-12-05T00:39:23;64.40;;;32.67;;
9974;SDS011;5028;50.974;4.968;2022-12-05T00:41:51;65.93;;;32.83;;
9974;SDS011;5028;50.974;4.968;2022-12-05T00:44:26;63.60;;;32.37;;
9974;SDS011;5028;50.974;4.968;2022-12-05T00:46:54;63.30;;;31.73;;
9974;SDS011;5028;50.974;4.968;2022-12-05T00:49:31;63.37;;;32.07;;
9974;SDS011;5028;50.974;4.968;2022-12-05T00:52:05;64.07;;;31.50;;
9974;SDS011;5028;50.974;4.968;2022-12-05T00:54:33;57.97;;;30.90;;
9974;SDS011;5028;50.974;4.968;2022-12-05T00:57:08;59.53;;;31.60;;
9974;SDS011;5028;50.974;4.968;2022-12-05T00:59:36;60.60;;;30.90;;
9974;SDS011;5028;50.974;4.968;2022-12-05T01:02:19;57.93;;;30.60;;
9974;SDS011;5028;50.974;4.968;2022-12-05T01:04:49;53.10;;;30.60;;
9974;SDS011;5028;50.974;4.968;2022-12-05T01:07:23;60.67;;;31.40;;
9974;SDS011;5028;50.974;4.968;2022-12-05T01:09:52;61.73;;;31.30;;
9974;SDS011;5028;50.974;4.968;2022-12-05T01:12:26;60.67;;;30.10;;
9974;SDS011;5028;50.974;4.968;2022-12-05T01:14:55;60.73;;;30.13;;
9974;SDS011;5028;50.974;4.968;2022-12-05T01:17:29;57.77;;;29.67;;
9974;SDS011;5028;50.974;4.968;2022-12-05T01:19:59;55.93;;;29.53;;
9974;SDS011;5028;50.974;4.968;2022-12-05T01:22:33;55.63;;;29.83;;
9974;SDS011;5028;50.974;4.968;2022-12-05T01:25:02;59.53;;;29.23;;
9974;SDS011;5028;50.974;4.968;2022-12-05T01:27:36;55.77;;;29.57;;
9974;SDS011;5028;50.974;4.968;2022-12-05T01:30:05;51.17;;;29.20;;
9974;SDS011;5028;50.974;4.968;2022-12-05T01:32:41;57.27;;;30.10;;
9974;SDS011;5028;50.974;4.968;2022-12-05T01:35:10;50.57;;;27.37;;
9974;SDS011;5028;50.974;4.968;2022-12-05T01:37:46;53.90;;;27.37;;
9974;SDS011;5028;50.974;4.968;2022-12-05T01:40:14;53.13;;;27.90;;
9974;SDS011;5028;50.974;4.968;2022-12-05T01:42:50;57.60;;;29.83;;
9974;SDS011;5028;50.974;4.968;2022-12-05T01:45:20;55.37;;;28.67;;
9974;SDS011;5028;50.974;4.968;2022-12-05T01:48:01;48.87;;;26.73;;
9974;SDS011;5028;50.974;4.968;2022-12-05T01:50:33;52.40;;;28.40;;
9974;SDS011;5028;50.974;4.968;2022-12-05T01:53:08;55.93;;;27.70;;
9974;SDS011;5028;50.974;4.968;2022-12-05T01:55:37;52.77;;;28.00;;
9974;SDS011;5028;50.974;4.968;2022-12-05T01:58:11;47.40;;;27.27;;
9974;SDS011;5028;50.974;4.968;2022-12-05T02:00:40;53.80;;;28.20;;
9974;SDS011;5028;50.974;4.968;2022-12-05T02:03:28;55.07;;;28.50;;
9974;SDS011;5028;50.974;4.968;2022-12-05T02:05:58;57.77;;;29.07;;
9974;SDS011;5028;50.974;4.968;2022-12-05T02:08:33;53.70;;;28.53;;
9974;SDS011;5028;50.974;4.968;2022-12-05T02:11:02;56.40;;;29.30;;
9974;SDS011;5028;50.974;4.968;2022-12-05T02:13:43;50.60;;;27.43;;
9974;SDS011;5028;50.974;4.968;2022-12-05T02:16:20;53.30;;;28.60;;
9974;SDS011;5028;50.974;4.968;2022-12-05T02:19:03;54.93;;;28.90;;
9974;SDS011;5028;50.974;4.968;2022-12-05T02:25:07;55.07;;;29.73;;
9974;SDS011;5028;50.974;4.968;2022-12-05T02:27:55;53.90;;;29.27;;
9974;SDS011;5028;50.974;4.968;2022-12-05T02:30:45;52.47;;;28.87;;
9974;SDS011;5028;50.974;4.968;2022-12-05T02:33:17;54.77;;;29.83;;
9974;SDS011;5028;50.974;4.968;2022-12-05T02:35:57;57.37;;;29.90;;
9974;SDS011;5028;50.974;4.968;2022-12-05T02:38:30;63.87;;;31.50;;
9974;SDS011;5028;50.974;4.968;2022-12-05T02:41:13;54.13;;;29.70;;
9974;SDS011;5028;50.974;4.968;2022-12-05T02:43:46;52.47;;;27.97;;
9974;SDS011;5028;50.974;4.968;2022-12-05T02:46:29;61.40;;;30.57;;
9974;SDS011;5028;50.974;4.968;2022-12-05T02:48:59;58.33;;;29.60;;
9974;SDS011;5028;50.974;4.968;2022-12-05T02:51:37;54.27;;;28.70;;
9974;SDS011;5028;50.974;4.968;2022-12-05T02:54:10;60.43;;;30.37;;
9974;SDS011;5028;50.974;4.968;2022-12-05T02:56:49;68.10;;;30.67;;
9974;SDS011;5028;50.974;4.968;2022-12-05T02:59:18;72.50;;;32.17;;
9974;SDS011;5028;50.974;4.968;2022-12-05T03:01:54;72.00;;;32.07;;
9974;SDS011;5028;50.974;4.968;2022-12-05T03:04:35;67.47;;;31.20;;
9974;SDS011;5028;50.974;4.968;2022-12-05T03:07:11;66.67;;;29.37;;
9974;SDS011;5028;50.974;4.968;2022-12-05T03:09:40;71.27;;;31.97;;
9974;SDS011;5028;50.974;4.968;2022-12-05T03:12:20;71.33;;;31.70;;
9974;SDS011;5028;50.974;4.968;2022-12-05T03:14:53;69.63;;;31.37;;
9974;SDS011;5028;50.974;4.968;2022-12-05T03:17:34;64.93;;;30.53;;
9974;SDS011;5028;50.974;4.968;2022-12-05T03:20:10;73.90;;;32.73;;
9974;SDS011;5028;50.974;4.968;2022-12-05T03:22:52;69.63;;;31.47;;
9974;SDS011;5028;50.974;4.968;2022-12-05T03:25:27;68.37;;;31.23;;
9974;SDS011;5028;50.974;4.968;2022-12-05T03:28:09;66.37;;;31.20;;
9974;SDS011;5028;50.974;4.968;2022-12-05T03:30:45;71.53;;;31.07;;
9974;SDS011;5028;50.974;4.968;2022-12-05T03:33:23;73.50;;;31.87;;
9974;SDS011;5028;50.974;4.968;2022-12-05T03:35:57;72.50;;;32.93;;
9974;SDS011;5028;50.974;4.968;2022-12-05T03:38:36;77.37;;;32.83;;
9974;SDS011;5028;50.974;4.968;2022-12-05T03:41:13;79.60;;;32.87;;
9974;SDS011;5028;50.974;4.968;2022-12-05T03:43:53;78.50;;;33.70;;
9974;SDS011;5028;50.974;4.968;2022-12-05T03:46:25;75.90;;;33.80;;
9974;SDS011;5028;50.974;4.968;2022-12-05T03:49:06;85.50;;;33.53;;
9974;SDS011;5028;50.974;4.968;2022-12-05T03:51:40;84.93;;;33.13;;
9974;SDS011;5028;50.974;4.968;2022-12-05T03:54:21;90.40;;;34.40;;
9974;SDS011;5028;50.974;4.968;2022-12-05T03:56:53;79.77;;;33.33;;
9974;SDS011;5028;50.974;4.968;2022-12-05T03:59:33;74.60;;;32.23;;
9974;SDS011;5028;50.974;4.968;2022-12-05T04:02:06;95.53;;;34.10;;
9974;SDS011;5028;50.974;4.968;2022-12-05T04:05:03;87.43;;;34.00;;
9974;SDS011;5028;50.974;4.968;2022-12-05T04:07:36;80.43;;;33.77;;
9974;SDS011;5028;50.974;4.968;2022-12-05T04:10:15;85.00;;;33.50;;
9974;SDS011;5028;50.974;4.968;2022-12-05T04:12:48;84.00;;;36.40;;
9974;SDS011;5028;50.974;4.968;2022-12-05T04:15:27;86.20;;;33.00;;
9974;SDS011;5028;50.974;4.968;2022-12-05T04:18:17;89.40;;;34.70;;
9974;SDS011;5028;50.974;4.968;2022-12-05T04:20:56;79.77;;;34.00;;
9974;SDS011;5028;50.974;4.968;2022-12-05T04:23:43;78.20;;;34.10;;
9974;SDS011;5028;50.974;4.968;2022-12-05T04:26:39;76.77;;;32.50;;
9974;SDS011;5028;50.974;4.968;2022-12-05T04:29:14;60.83;;;28.83;;
9974;SDS011;5028;50.974;4.968;2022-12-05T04:31:57;89.47;;;33.73;;
9974;SDS011;5028;50.974;4.968;2022-12-05T04:34:31;79.57;;;33.63;;
9974;SDS011;5028;50.974;4.968;2022-12-05T04:37:09;76.93;;;34.10;;
9974;SDS011;5028;50.974;4.968;2022-12-05T04:39:43;77.17;;;33.80;;
9974;SDS011;5028;50.974;4.968;2022-12-05T04:42:22;81.97;;;32.60;;
9974;SDS011;5028;50.974;4.968;2022-12-05T04:44:53;79.90;;;32.93;;
9974;SDS011;5028;50.974;4.968;2022-12-05T04:47:34;74.00;;;32.20;;
9974;SDS011;5028;50.974;4.968;2022-12-05T04:50:06;77.30;;;32.13;;
9974;SDS011;5028;50.974;4.968;2022-12-05T04:52:44;70.17;;;31.90;;
9974;SDS011;5028;50.974;4.968;2022-12-05T04:55:17;67.90;;;31.90;;
9974;SDS011;5028;50.974;4.968;2022-12-05T04:57:59;67.30;;;30.07;;
9974;SDS011;5028;50.974;4.968;2022-12-05T05:00:34;68.87;;;32.30;;
9974;SDS011;5028;50.974;4.968;2022-12-05T05:03:16;61.97;;;30.47;;
9974;SDS011;5028;50.974;4.968;2022-12-05T05:05:54;68.97;;;30.67;;
9974;SDS011;5028;50.974;4.968;2022-12-05T05:08:31;63.53;;;30.90;;
9974;SDS011;5028;50.974;4.968;2022-12-05T05:11:02;67.57;;;32.53;;
9974;SDS011;5028;50.974;4.968;2022-12-05T05:13:43;63.40;;;30.07;;
9974;SDS011;5028;50.974;4.968;2022-12-05T05:16:14;69.07;;;31.73;;
9974;SDS011;5028;50.974;4.968;2022-12-05T05:18:51;69.60;;;29.37;;
9974;SDS011;5028;50.974;4.968;2022-12-05T05:21:19;64.33;;;30.87;;
9974;SDS011;5028;50.974;4.968;2022-12-05T05:23:58;60.40;;;29.20;;
9974;SDS011;5028;50.974;4.968;2022-12-05T05:26:27;67.87;;;31.63;;
9974;SDS011;5028;50.974;4.968;2022-12-05T05:29:03;68.87;;;30.57;;
9974;SDS011;5028;50.974;4.968;2022-12-05T05:31:31;57.33;;;30.03;;
9974;SDS011;5028;50.974;4.968;2022-12-05T05:34:06;57.30;;;28.87;;
9974;SDS011;5028;50.974;4.968;2022-12-05T05:36:35;58.27;;;29.97;;
9974;SDS011;5028;50.974;4.968;2022-12-05T05:39:13;59.50;;;29.47;;
9974;SDS011;5028;50.974;4.968;2022-12-05T05:41:42;57.90;;;29.33;;
9974;SDS011;5028;50.974;4.968;2022-12-05T05:44:17;60.43;;;28.30;;
9974;SDS011;5028;50.974;4.968;2022-12-05T05:46:45;57.23;;;28.73;;
9974;SDS011;5028;50.974;4.968;2022-12-05T05:49:20;53.40;;;29.27;;
9974;SDS011;5028;50.974;4.968;2022-12-05T05:51:48;60.47;;;30.40;;
9974;SDS011;5028;50.974;4.968;2022-12-05T05:54:24;61.20;;;30.17;;
9974;SDS011;5028;50.974;4.968;2022-12-05T05:56:52;62.60;;;33.70;;
9974;SDS011;5028;50.974;4.968;2022-12-05T05:59:27;73.87;;;36.53;;
9974;SDS011;5028;50.974;4.968;2022-12-05T06:01:55;67.70;;;34.43;;
9974;SDS011;5028;50.974;4.968;2022-12-05T06:04:36;69.57;;;33.30;;
9974;SDS011;5028;50.974;4.968;2022-12-05T06:07:05;64.90;;;31.93;;
9974;SDS011;5028;50.974;4.968;2022-12-05T06:09:41;78.63;;;34.43;;
9974;SDS011;5028;50.974;4.968;2022-12-05T06:12:09;66.37;;;34.63;;
9974;SDS011;5028;50.974;4.968;2022-12-05T06:14:45;60.80;;;31.70;;
9974;SDS011;5028;50.974;4.968;2022-12-05T06:17:14;64.10;;;31.77;;
9974;SDS011;5028;50.974;4.968;2022-12-05T06:19:49;78.30;;;34.60;;
9974;SDS011;5028;50.974;4.968;2022-12-05T06:22:17;63.00;;;32.83;;
9974;SDS011;5028;50.974;4.968;2022-12-05T06:24:53;69.70;;;31.40;;
9974;SDS011;5028;50.974;4.968;2022-12-05T06:27:21;68.97;;;31.73;;
9974;SDS011;5028;50.974;4.968;2022-12-05T06:29:56;66.33;;;32.27;;
9974;SDS011;5028;50.974;4.968;2022-12-05T06:32:24;74.50;;;32.37;;
9974;SDS011;5028;50.974;4.968;2022-12-05T06:35:01;66.47;;;31.17;;
9974;SDS011;5028;50.974;4.968;2022-12-05T06:37:36;68.47;;;32.43;;
9974;SDS011;5028;50.974;4.968;2022-12-05T06:40:12;70.73;;;32.47;;
9974;SDS011;5028;50.974;4.968;2022-12-05T06:42:41;65.13;;;31.37;;
9974;SDS011;5028;50.974;4.968;2022-12-05T06:45:15;66.80;;;30.67;;
9974;SDS011;5028;50.974;4.968;2022-12-05T06:47:43;69.63;;;31.10;;
9974;SDS011;5028;50.974;4.968;2022-12-05T06:50:18;58.87;;;31.03;;
9974;SDS011;5028;50.974;4.968;2022-12-05T06:52:46;68.60;;;30.90;;
9974;SDS011;5028;50.974;4.968;2022-12-05T06:55:22;60.23;;;29.43;;
9974;SDS011;5028;50.974;4.968;2022-12-05T06:57:50;60.97;;;29.90;;
9974;SDS011;5028;50.974;4.968;2022-12-05T07:00:25;70.37;;;31.30;;
9974;SDS011;5028;50.974;4.968;2022-12-05T07:03:17;60.30;;;30.97;;
9974;SDS011;5028;50.974;4.968;2022-12-05T07:05:52;61.67;;;29.77;;
9974;SDS011;5028;50.974;4.968;2022-12-05T07:08:27;50.70;;;28.23;;
9974;SDS011;5028;50.974;4.968;2022-12-05T07:10:56;52.47;;;28.83;;
9974;SDS011;5028;50.974;4.968;2022-12-05T07:13:31;54.47;;;29.57;;
9974;SDS011;5028;50.974;4.968;2022-12-05T07:15:59;58.33;;;29.83;;
9974;SDS011;5028;50.974;4.968;2022-12-05T07:18:34;53.07;;;28.50;;
9974;SDS011;5028;50.974;4.968;2022-12-05T07:21:03;56.47;;;29.27;;
9974;SDS011;5028;50.974;4.968;2022-12-05T07:23:40;49.53;;;28.30;;
9974;SDS011;5028;50.974;4.968;2022-12-05T07:26:14;54.70;;;29.03;;
9974;SDS011;5028;50.974;4.968;2022-12-05T07:28:51;47.17;;;27.87;;
9974;SDS011;5028;50.974;4.968;2022-12-05T07:31:23;48.93;;;28.87;;
9974;SDS011;5028;50.974;4.968;2022-12-05T07:33:58;57.00;;;28.47;;
9974;SDS011;5028;50.974;4.968;2022-12-05T07:36:26;49.00;;;27.73;;
9974;SDS011;5028;50.974;4.968;2022-12-05T07:39:01;53.83;;;28.20;;
9974;SDS011;5028;50.974;4.968;2022-12-05T07:41:31;56.77;;;28.63;;
9974;SDS011;5028;50.974;4.968;2022-12-05T07:44:08;50.60;;;27.50;;
9974;SDS011;5028;50.974;4.968;2022-12-05T07:46:38;48.23;;;26.57;;
9974;SDS011;5028;50.974;4.968;2022-12-05T07:49:13;50.37;;;27.53;;
9974;SDS011;5028;50.974;4.968;2022-12-05T07:51:41;53.43;;;25.93;;
9974;SDS011;5028;50.974;4.968;2022-12-05T07:54:16;50.23;;;26.10;;
9974;SDS011;5028;50.974;4.968;2022-12-05T07:56:45;46.33;;;26.70;;
9974;SDS011;5028;50.974;4.968;2022-12-05T07:59:20;47.33;;;25.87;;
9974;SDS011;5028;50.974;4.968;2022-12-05T08:01:55;47.43;;;26.17;;
9974;SDS011;5028;50.974;4.968;2022-12-05T08:04:29;43.80;;;25.17;;
9974;SDS011;5028;50.974;4.968;2022-12-05T08:06:57;46.37;;;25.63;;
9974;SDS011;5028;50.974;4.968;2022-12-05T08:09:32;45.60;;;26.23;;
9974;SDS011;5028;50.974;4.968;2022-12-05T08:12:01;42.40;;;24.67;;
9974;SDS011;5028;50.974;4.968;2022-12-05T08:14:36;45.87;;;24.57;;
9974;SDS011;5028;50.974;4.968;2022-12-05T08:17:04;46.73;;;24.70;;
9974;SDS011;5028;50.974;4.968;2022-12-05T08:19:39;47.60;;;25.30;;
9974;SDS011;5028;50.974;4.968;2022-12-05T08:22:07;43.03;;;24.93;;
9974;SDS011;5028;50.974;4.968;2022-12-05T08:24:42;38.67;;;23.63;;
9974;SDS011;5028;50.974;4.968;2022-12-05T08:27:11;44.40;;;24.50;;
9974;SDS011;5028;50.974;4.968;2022-12-05T08:29:46;39.50;;;23.97;;
9974;SDS011;5028;50.974;4.968;2022-12-05T08:32:14;36.90;;;22.77;;
9974;SDS011;5028;50.974;4.968;2022-12-05T08:34:49;38.37;;;23.60;;
9974;SDS011;5028;50.974;4.968;2022-12-05T08:37:17;41.57;;;23.93;;
9974;SDS011;5028;50.974;4.968;2022-12-05T08:39:52;40.60;;;23.07;;
9974;SDS011;5028;50.974;4.968;2022-12-05T08:42:21;39.90;;;22.43;;
9974;SDS011;5028;50.974;4.968;2022-12-05T08:44:56;35.50;;;21.60;;
9974;SDS011;5028;50.974;4.968;2022-12-05T08:47:24;39.33;;;21.83;;
9974;SDS011;5028;50.974;4.968;2022-12-05T08:50:00;36.63;;;22.57;;
9974;SDS011;5028;50.974;4.968;2022-12-05T08:52:28;38.03;;;22.57;;
9974;SDS011;5028;50.974;4.968;2022-12-05T08:55:03;40.57;;;22.80;;
9974;SDS011;5028;50.974;4.968;2022-12-05T08:57:33;38.47;;;21.77;;
9974;SDS011;5028;50.974;4.968;2022-12-05T09:00:08;37.50;;;22.77;;
9974;SDS011;5028;50.974;4.968;2022-12-05T09:02:37;34.83;;;21.53;;
9974;SDS011;5028;50.974;4.968;2022-12-05T09:05:18;36.90;;;22.60;;
9974;SDS011;5028;50.974;4.968;2022-12-05T09:07:54;41.07;;;22.07;;
9974;SDS011;5028;50.974;4.968;2022-12-05T09:10:31;33.30;;;21.70;;
9974;SDS011;5028;50.974;4.968;2022-12-05T09:13:00;34.07;;;21.30;;
9974;SDS011;5028;50.974;4.968;2022-12-05T09:15:36;37.43;;;21.63;;
9974;SDS011;5028;50.974;4.968;2022-12-05T09:18:05;34.17;;;21.53;;
9974;SDS011;5028;50.974;4.968;2022-12-05T09:20:39;34.17;;;21.50;;
9974;SDS011;5028;50.974;4.968;2022-12-05T09:23:07;34.17;;;22.30;;
9974;SDS011;5028;50.974;4.968;2022-12-05T09:25:42;40.67;;;22.17;;
9974;SDS011;5028;50.974;4.968;2022-12-05T09:28:11;33.83;;;20.80;;
9974;SDS011;5028;50.974;4.968;2022-12-05T09:30:54;32.07;;;20.77;;
9974;SDS011;5028;50.974;4.968;2022-12-05T09:33:23;35.20;;;20.87;;
9974;SDS011;5028;50.974;4.968;2022-12-05T09:36:00;32.43;;;21.30;;
9974;SDS011;5028;50.974;4.968;2022-12-05T09:38:29;30.17;;;19.80;;
9974;SDS011;5028;50.974;4.968;2022-12-05T09:41:06;29.57;;;20.43;;
9974;SDS011;5028;50.974;4.968;2022-12-05T09:43:42;32.07;;;20.83;;
9974;SDS011;5028;50.974;4.968;2022-12-05T09:46:23;32.50;;;20.43;;
9974;SDS011;5028;50.974;4.968;2022-12-05T09:49:02;29.47;;;20.00;;
9974;SDS011;5028;50.974;4.968;2022-12-05T09:51:39;31.83;;;22.13;;
9974;SDS011;5028;50.974;4.968;2022-12-05T09:54:16;34.63;;;22.23;;
9974;SDS011;5028;50.974;4.968;2022-12-05T09:56:51;30.40;;;20.57;;
9974;SDS011;5028;50.974;4.968;2022-12-05T09:59:20;29.80;;;19.87;;
9974;SDS011;5028;50.974;4.968;2022-12-05T10:02:03;26.90;;;19.60;;
9974;SDS011;5028;50.974;4.968;2022-12-05T10:05:02;24.93;;;18.80;;
9974;SDS011;5028;50.974;4.968;2022-12-05T10:07:41;25.53;;;19.17;;
9974;SDS011;5028;50.974;4.968;2022-12-05T10:10:20;22.00;;;17.23;;
9974;SDS011;5028;50.974;4.968;2022-12-05T10:13:13;24.53;;;17.83;;
9974;SDS011;5028;50.974;4.968;2022-12-05T10:15:50;24.77;;;18.60;;
9974;SDS011;5028;50.974;4.968;2022-12-05T10:18:29;22.20;;;18.00;;
9974;SDS011;5028;50.974;4.968;2022-12-05T10:21:04;23.00;;;18.70;;
9974;SDS011;5028;50.974;4.968;2022-12-05T10:23:50;25.00;;;18.27;;
9974;SDS011;5028;50.974;4.968;2022-12-05T10:26:24;22.13;;;17.17;;
9974;SDS011;5028;50.974;4.968;2022-12-05T10:29:02;20.97;;;16.90;;
9974;SDS011;5028;50.974;4.968;2022-12-05T10:31:39;22.10;;;17.13;;
9974;SDS011;5028;50.974;4.968;2022-12-05T10:34:20;18.90;;;15.60;;
9974;SDS011;5028;50.974;4.968;2022-12-05T10:36:55;21.67;;;15.90;;
9974;SDS011;5028;50.974;4.968;2022-12-05T10:39:34;25.23;;;16.43;;
9974;SDS011;5028;50.974;4.968;2022-12-05T10:42:03;20.60;;;16.50;;
9974;SDS011;5028;50.974;4.968;2022-12-05T10:44:33;21.17;;;16.20;;
9974;SDS011;5028;50.974;4.968;2022-12-05T10:47:10;18.50;;;15.67;;
9974;SDS011;5028;50.974;4.968;2022-12-05T10:49:39;21.77;;;16.30;;
9974;SDS011;5028;50.974;4.968;2022-12-05T10:52:14;17.23;;;14.50;;
9974;SDS011;5028;50.974;4.968;2022-12-05T10:54:43;18.33;;;14.27;;
9974;SDS011;5028;50.974;4.968;2022-12-05T10:57:23;18.60;;;15.60;;
9974;SDS011;5028;50.974;4.968;2022-12-05T10:59:52;21.00;;;14.73;;
9974;SDS011;5028;50.974;4.968;2022-12-05T11:02:36;21.30;;;15.77;;
9974;SDS011;5028;50.974;4.968;2022-12-05T11:05:26;17.33;;;14.40;;
9974;SDS011;5028;50.974;4.968;2022-12-05T11:07:55;17.43;;;14.50;;
9974;SDS011;5028;50.974;4.968;2022-12-05T11:10:32;20.23;;;15.53;;
9974;SDS011;5028;50.974;4.968;2022-12-05T11:13:12;18.57;;;15.20;;
9974;SDS011;5028;50.974;4.968;2022-12-05T11:15:49;15.63;;;12.90;;
9974;SDS011;5028;50.974;4.968;2022-12-05T11:18:27;18.17;;;14.23;;
9974;SDS011;5028;50.974;4.968;2022-12-05T11:21:08;17.90;;;14.47;;
9974;SDS011;5028;50.974;4.968;2022-12-05T11:23:37;17.00;;;14.17;;
9974;SDS011;5028;50.974;4.968;2022-12-05T11:26:16;14.33;;;11.87;;
9974;SDS011;5028;50.974;4.968;2022-12-05T11:28:46;13.87;;;12.37;;
9974;SDS011;5028;50.974;4.968;2022-12-05T11:31:24;13.10;;;11.80;;
9974;SDS011;5028;50.974;4.968;2022-12-05T11:34:01;14.87;;;13.30;;
9974;SDS011;5028;50.974;4.968;2022-12-05T11:36:42;16.07;;;13.63;;
9974;SDS011;5028;50.974;4.968;2022-12-05T11:39:14;17.30;;;14.13;;
9974;SDS011;5028;50.974;4.968;2022-12-05T11:41:56;14.60;;;13.03;;
9974;SDS011;5028;50.974;4.968;2022-12-05T11:44:41;16.27;;;13.60;;
9974;SDS011;5028;50.974;4.968;2022-12-05T11:47:32;16.67;;;14.53;;
9974;SDS011;5028;50.974;4.968;2022-12-05T11:50:16;16.00;;;14.00;;
9974;SDS011;5028;50.974;4.968;2022-12-05T11:53:01;16.03;;;14.33;;
9974;SDS011;5028;50.974;4.968;2022-12-05T11:55:41;16.33;;;14.27;;
9974;SDS011;5028;50.974;4.968;2022-12-05T11:58:35;17.07;;;14.27;;
9974;SDS011;5028;50.974;4.968;2022-12-05T12:01:14;15.97;;;14.13;;
9974;SDS011;5028;50.974;4.968;2022-12-05T12:04:12;17.37;;;14.67;;
9974;SDS011;5028;50.974;4.968;2022-12-05T12:07:15;16.87;;;15.13;;
9974;SDS011;5028;50.974;4.968;2022-12-05T12:10:00;17.07;;;14.60;;
9974;SDS011;5028;50.974;4.968;2022-12-05T12:12:39;16.67;;;14.63;;
9974;SDS011;5028;50.974;4.968;2022-12-05T12:15:29;16.30;;;14.57;;
9974;SDS011;5028;50.974;4.968;2022-12-05T12:18:16;15.87;;;14.23;;
9974;SDS011;5028;50.974;4.968;2022-12-05T12:21:00;16.73;;;14.47;;
9974;SDS011;5028;50.974;4.968;2022-12-05T12:23:46;16.77;;;14.57;;
9974;SDS011;5028;50.974;4.968;2022-12-05T12:26:33;15.77;;;14.07;;
9974;SDS011;5028;50.974;4.968;2022-12-05T12:29:14;18.10;;;16.07;;
9974;SDS011;5028;50.974;4.968;2022-12-05T12:32:02;18.20;;;16.30;;
9974;SDS011;5028;50.974;4.968;2022-12-05T12:34:53;19.53;;;16.57;;
9974;SDS011;5028;50.974;4.968;2022-12-05T12:37:39;14.07;;;12.43;;
9974;SDS011;5028;50.974;4.968;2022-12-05T12:40:16;16.17;;;13.83;;
9974;SDS011;5028;50.974;4.968;2022-12-05T12:42:56;16.97;;;14.27;;
9974;SDS011;5028;50.974;4.968;2022-12-05T12:48:40;14.83;;;13.20;;
9974;SDS011;5028;50.974;4.968;2022-12-05T12:51:24;12.10;;;10.80;;
9974;SDS011;5028;50.974;4.968;2022-12-05T12:53:58;15.10;;;13.00;;
9974;SDS011;5028;50.974;4.968;2022-12-05T12:57:17;13.87;;;11.57;;
9974;SDS011;5028;50.974;4.968;2022-12-05T13:00:00;11.67;;;10.47;;
9974;SDS011;5028;50.974;4.968;2022-12-05T13:02:38;12.50;;;11.20;;
9974;SDS011;5028;50.974;4.968;2022-12-05T13:05:33;12.80;;;10.97;;
9974;SDS011;5028;50.974;4.968;2022-12-05T13:08:12;11.63;;;10.43;;
9974;SDS011;5028;50.974;4.968;2022-12-05T13:10:46;11.43;;;10.23;;
9974;SDS011;5028;50.974;4.968;2022-12-05T13:13:23;11.63;;;10.43;;
9974;SDS011;5028;50.974;4.968;2022-12-05T13:15:57;11.17;;;10.07;;
9974;SDS011;5028;50.974;4.968;2022-12-05T13:18:33;9.63;;;8.70;;
9974;SDS011;5028;50.974;4.968;2022-12-05T13:21:02;11.33;;;10.23;;
9974;SDS011;5028;50.974;4.968;2022-12-05T13:23:42;9.67;;;8.77;;
9974;SDS011;5028;50.974;4.968;2022-12-05T13:26:13;10.77;;;9.70;;
9974;SDS011;5028;50.974;4.968;2022-12-05T13:28:51;11.33;;;10.23;;
9974;SDS011;5028;50.974;4.968;2022-12-05T13:31:33;11.47;;;10.27;;
9974;SDS011;5028;50.974;4.968;2022-12-05T13:37:18;9.13;;;8.20;;
9974;SDS011;5028;50.974;4.968;2022-12-05T13:40:18;10.57;;;9.47;;
9974;SDS011;5028;50.974;4.968;2022-12-05T13:43:17;11.60;;;9.77;;
9974;SDS011;5028;50.974;4.968;2022-12-05T13:45:59;11.10;;;9.90;;
9974;SDS011;5028;50.974;4.968;2022-12-05T13:48:39;10.73;;;9.70;;
9974;SDS011;5028;50.974;4.968;2022-12-05T13:51:10;9.80;;;8.80;;
9974;SDS011;5028;50.974;4.968;2022-12-05T13:53:56;9.37;;;8.40;;
9974;SDS011;5028;50.974;4.968;2022-12-05T13:56:29;9.73;;;8.83;;
9974;SDS011;5028;50.974;4.968;2022-12-05T14:02:52;10.50;;;9.30;;
9974;SDS011;5028;50.974;4.968;2022-12-05T14:05:44;9.73;;;8.83;;
9974;SDS011;5028;50.974;4.968;2022-12-05T14:11:28;10.93;;;9.93;;
9974;SDS011;5028;50.974;4.968;2022-12-05T14:13:56;10.37;;;9.37;;
9974;SDS011;5028;50.974;4.968;2022-12-05T14:19:29;11.40;;;10.30;;
9974;SDS011;5028;50.974;4.968;2022-12-05T14:22:33;10.63;;;9.53;;
9974;SDS011;5028;50.974;4.968;2022-12-05T14:25:12;12.23;;;11.00;;
9974;SDS011;5028;50.974;4.968;2022-12-05T14:28:00;10.43;;;9.33;;
9974;SDS011;5028;50.974;4.968;2022-12-05T14:30:40;13.70;;;12.30;;
9974;SDS011;5028;50.974;4.968;2022-12-05T14:33:23;13.07;;;11.60;;
9974;SDS011;5028;50.974;4.968;2022-12-05T14:35:53;12.37;;;11.07;;
9974;SDS011;5028;50.974;4.968;2022-12-05T14:38:28;17.50;;;13.70;;
9974;SDS011;5028;50.974;4.968;2022-12-05T14:41:09;14.17;;;12.17;;
9974;SDS011;5028;50.974;4.968;2022-12-05T14:43:49;13.00;;;11.70;;
9974;SDS011;5028;50.974;4.968;2022-12-05T14:46:21;13.80;;;12.30;;
9974;SDS011;5028;50.974;4.968;2022-12-05T14:49:01;12.37;;;11.07;;
9974;SDS011;5028;50.974;4.968;2022-12-05T14:52:10;13.13;;;11.77;;
9974;SDS011;5028;50.974;4.968;2022-12-05T14:54:52;13.87;;;12.23;;
9974;SDS011;5028;50.974;4.968;2022-12-05T14:57:26;12.87;;;11.57;;
9974;SDS011;5028;50.974;4.968;2022-12-05T15:00:03;13.17;;;11.73;;
9974;SDS011;5028;50.974;4.968;2022-12-05T15:02:33;13.50;;;12.10;;
9974;SDS011;5028;50.974;4.968;2022-12-05T15:05:17;13.37;;;11.50;;
9974;SDS011;5028;50.974;4.968;2022-12-05T15:07:50;13.40;;;12.10;;
9974;SDS011;5028;50.974;4.968;2022-12-05T15:10:27;12.60;;;11.30;;
9974;SDS011;5028;50.974;4.968;2022-12-05T15:12:59;13.73;;;12.37;;
9974;SDS011;5028;50.974;4.968;2022-12-05T15:15:38;14.73;;;12.30;;
9974;SDS011;5028;50.974;4.968;2022-12-05T15:18:13;13.60;;;12.20;;
9974;SDS011;5028;50.974;4.968;2022-12-05T15:20:56;13.73;;;12.33;;
9974;SDS011;5028;50.974;4.968;2022-12-05T15:23:41;14.20;;;12.70;;
9974;SDS011;5028;50.974;4.968;2022-12-05T15:26:18;14.73;;;11.90;;
9974;SDS011;5028;50.974;4.968;2022-12-05T15:29:10;14.80;;;13.10;;
9974;SDS011;5028;50.974;4.968;2022-12-05T15:31:48;17.33;;;14.20;;
9974;SDS011;5028;50.974;4.968;2022-12-05T15:34:19;17.03;;;14.10;;
9974;SDS011;5028;50.974;4.968;2022-12-05T15:36:57;17.50;;;13.70;;
9974;SDS011;5028;50.974;4.968;2022-12-05T15:39:47;16.80;;;13.70;;
9974;SDS011;5028;50.974;4.968;2022-12-05T15:42:25;15.70;;;13.60;;
9974;SDS011;5028;50.974;4.968;2022-12-05T15:47:56;17.00;;;13.67;;
9974;SDS011;5028;50.974;4.968;2022-12-05T15:50:38;16.93;;;13.47;;
9974;SDS011;5028;50.974;4.968;2022-12-05T15:53:15;15.93;;;13.37;;
9974;SDS011;5028;50.974;4.968;2022-12-05T15:55:51;16.70;;;14.37;;
9974;SDS011;5028;50.974;4.968;2022-12-05T15:58:29;16.10;;;13.93;;
9974;SDS011;5028;50.974;4.968;2022-12-05T16:01:01;15.43;;;13.37;;
9974;SDS011;5028;50.974;4.968;2022-12-05T16:03:42;17.47;;;14.70;;
9974;SDS011;5028;50.974;4.968;2022-12-05T16:06:28;16.30;;;13.87;;